Reserve, New Mexico
Current Conditions -  °F | °C
As of 2:54 PM on Friday 19 Dec 2014 (Local Time) from KSJN Reporting Station
Clear Clear  
Wind Chill: 38°   Ceiling: Unl
Heat Index: 42°   Visibility: 10mi
Dew Point: 27°   Wind: 6mph
Humidity: 55%   Direction: 350°N
Pressure: 30.19"   Gusts: NA
Location:  33.71°N, 108.76°W
Report Text: KSJN 192154Z AUTO 35005KT 10SM CLR 06/M03 A3019 RMK AO2 SLP217 T00561028
Loading
Personal Weather Stations






























Interactive Weather Map New forecast layout! Learn more

10-Day Weather Forecast

Advertisements
Track Severe Weather on mobile